createdAt,value
2022-09-23T00:02:07.394Z,12.60
2022-09-23T00:04:36.915Z,12.60
2022-09-23T00:07:04.253Z,12.50
2022-09-23T00:09:33.949Z,12.50
2022-09-23T00:12:04.631Z,12.50
2022-09-23T00:14:37.123Z,12.50
2022-09-23T00:17:06.989Z,12.50
2022-09-23T00:19:40.044Z,12.40
2022-09-23T00:22:07.937Z,12.40
2022-09-23T00:24:37.662Z,12.40
2022-09-23T00:27:05.218Z,12.30
2022-09-23T00:29:32.769Z,12.30
2022-09-23T00:32:00.124Z,12.30
2022-09-23T00:34:27.400Z,12.30
2022-09-23T00:36:54.741Z,12.30
2022-09-23T00:39:22.041Z,12.20
2022-09-23T00:41:51.858Z,12.20
2022-09-23T00:44:43.970Z,12.20
2022-09-23T00:47:17.109Z,12.20
2022-09-23T00:49:46.959Z,12.20
2022-09-23T00:52:18.264Z,12.20
2022-09-23T00:54:48.164Z,12.20
2022-09-23T00:57:17.986Z,12.10
2022-09-23T00:59:48.010Z,12.10
2022-09-23T01:02:16.558Z,12.10
2022-09-23T01:04:44.135Z,12.00
2022-09-23T01:07:13.810Z,12.00
2022-09-23T01:09:41.401Z,12.00
2022-09-23T01:12:44.003Z,12.00
2022-09-23T01:15:36.478Z,11.90
2022-09-23T01:18:24.794Z,11.90
2022-09-23T01:21:00.037Z,11.90
2022-09-23T01:24:08.574Z,11.90
2022-09-23T01:27:33.031Z,11.80
2022-09-23T01:30:18.588Z,11.80
2022-09-23T01:32:56.697Z,11.80
2022-09-23T01:35:49.980Z,11.80
2022-09-23T01:38:21.867Z,11.70
2022-09-23T01:41:13.988Z,11.60
2022-09-23T01:43:58.055Z,11.60
2022-09-23T01:46:34.113Z,11.60
2022-09-23T01:49:21.429Z,11.60
2022-09-23T01:51:57.407Z,11.50
2022-09-23T01:54:35.210Z,11.50
2022-09-23T01:57:45.311Z,11.50
2022-09-23T02:00:17.276Z,11.50
2022-09-23T02:02:50.263Z,11.40
2022-09-23T02:05:27.977Z,11.40
2022-09-23T02:08:05.392Z,11.30
2022-09-23T02:10:44.255Z,11.30
2022-09-23T02:13:25.386Z,11.30
2022-09-23T02:16:01.166Z,11.30
2022-09-23T02:19:14.397Z,11.20
2022-09-23T02:21:47.331Z,11.20
2022-09-23T02:24:21.049Z,11.20
2022-09-23T02:27:01.412Z,11.10
2022-09-23T02:29:51.587Z,11.10
2022-09-23T02:32:42.144Z,11.10
2022-09-23T02:35:12.188Z,11.10
2022-09-23T02:37:44.722Z,11.00
2022-09-23T02:40:22.700Z,11.00
2022-09-23T02:43:06.304Z,11.00
2022-09-23T02:45:34.483Z,11.00
2022-09-23T02:48:13.731Z,11.00
2022-09-23T02:50:43.564Z,11.00
2022-09-23T02:53:10.945Z,11.10
2022-09-23T02:55:39.218Z,11.10
2022-09-23T02:58:06.576Z,11.10
2022-09-23T03:01:04.907Z,11.20
2022-09-23T03:03:53.830Z,11.20
2022-09-23T03:06:32.210Z,11.20
2022-09-23T03:09:47.658Z,11.30
2022-09-23T03:12:36.067Z,11.30
2022-09-23T03:15:27.721Z,11.30
2022-09-23T03:17:58.005Z,11.40
2022-09-23T03:20:49.568Z,11.40
2022-09-23T03:23:23.916Z,11.40
2022-09-23T03:25:56.868Z,11.40
2022-09-23T03:28:25.682Z,11.50
2022-09-23T03:30:56.377Z,11.40
2022-09-23T03:33:30.701Z,11.50
2022-09-23T03:36:22.710Z,11.50
2022-09-23T03:38:52.868Z,11.50
2022-09-23T03:41:32.818Z,11.60
2022-09-23T03:44:00.607Z,11.60
2022-09-23T03:46:30.209Z,11.60
2022-09-23T03:49:06.584Z,11.60
2022-09-23T03:51:33.909Z,11.60
2022-09-23T03:54:01.198Z,11.60
2022-09-23T03:56:28.455Z,11.60
2022-09-23T03:58:58.222Z,11.60
2022-09-23T04:01:30.297Z,11.60
2022-09-23T04:03:57.556Z,11.60
2022-09-23T04:06:25.077Z,11.60
2022-09-23T04:08:56.115Z,11.60
2022-09-23T04:11:25.901Z,11.60
2022-09-23T04:13:53.243Z,11.60
2022-09-23T04:16:20.703Z,11.60
2022-09-23T04:18:48.996Z,11.60
2022-09-23T04:21:16.290Z,11.50
2022-09-23T04:23:43.792Z,11.50
2022-09-23T04:26:11.683Z,11.50
2022-09-23T04:28:44.206Z,11.50
2022-09-23T04:31:11.647Z,11.50
2022-09-23T04:33:39.044Z,11.50
2022-09-23T04:36:06.622Z,11.40
2022-09-23T04:38:37.106Z,11.40
2022-09-23T04:41:04.497Z,11.40
2022-09-23T04:43:31.760Z,11.30
2022-09-23T04:46:00.820Z,11.30
2022-09-23T04:48:29.053Z,11.30
2022-09-23T04:51:18.811Z,11.30
2022-09-23T04:53:50.998Z,11.30
2022-09-23T04:56:29.036Z,11.20
2022-09-23T04:59:02.240Z,11.20
2022-09-23T05:01:35.183Z,11.20
2022-09-23T05:04:08.599Z,11.20
2022-09-23T05:06:36.989Z,11.30
2022-09-23T05:09:07.113Z,11.20
2022-09-23T05:11:36.782Z,11.20
2022-09-23T05:14:04.136Z,11.30
2022-09-23T05:16:33.534Z,11.30
2022-09-23T05:19:01.185Z,11.30
2022-09-23T05:21:33.010Z,11.30
2022-09-23T05:24:00.921Z,11.40
2022-09-23T05:26:31.765Z,11.40
2022-09-23T05:29:00.046Z,11.40
2022-09-23T05:31:29.572Z,11.40
2022-09-23T05:33:59.312Z,11.40
2022-09-23T05:36:27.880Z,11.40
2022-09-23T05:38:56.547Z,11.40
2022-09-23T05:41:24.440Z,11.50
2022-09-23T05:43:55.795Z,11.50
2022-09-23T05:46:26.332Z,11.50
2022-09-23T05:48:58.665Z,11.60
2022-09-23T05:51:30.899Z,11.60
2022-09-23T05:53:59.931Z,11.60
2022-09-23T05:56:28.728Z,11.60
2022-09-23T05:59:01.057Z,11.60
2022-09-23T06:01:34.490Z,11.60
2022-09-23T06:04:03.492Z,11.60
2022-09-23T06:06:39.245Z,11.70
2022-09-23T06:09:11.243Z,11.70
2022-09-23T06:11:38.569Z,11.60
2022-09-23T06:14:06.369Z,11.70
2022-09-23T06:16:35.943Z,11.70
2022-09-23T06:19:07.292Z,11.70
2022-09-23T06:21:37.171Z,11.70
2022-09-23T06:24:07.754Z,11.70
2022-09-23T06:26:37.570Z,11.70
2022-09-23T06:29:11.860Z,11.70
2022-09-23T06:31:41.225Z,11.70
2022-09-23T06:34:14.215Z,11.80
2022-09-23T06:36:45.370Z,11.80
2022-09-23T06:39:18.230Z,11.80
2022-09-23T06:41:45.666Z,11.80
2022-09-23T06:44:14.167Z,11.70
2022-09-23T06:46:41.655Z,11.80
2022-09-23T06:49:12.192Z,11.80
2022-09-23T06:51:40.205Z,11.80
2022-09-23T06:54:07.818Z,11.70
2022-09-23T06:56:39.403Z,11.80
2022-09-23T06:59:11.023Z,11.70
2022-09-23T07:01:40.611Z,11.80
2022-09-23T07:04:10.164Z,11.80
2022-09-23T07:06:37.441Z,11.80
2022-09-23T07:09:06.497Z,11.80
2022-09-23T07:11:34.090Z,11.80
2022-09-23T07:14:01.352Z,11.90
2022-09-23T07:16:31.603Z,11.90
2022-09-23T07:19:01.593Z,11.90
2022-09-23T07:21:28.896Z,11.90
2022-09-23T07:23:58.097Z,12.00
2022-09-23T07:26:26.165Z,12.00
2022-09-23T07:29:04.953Z,12.10
2022-09-23T07:31:39.224Z,12.20
2022-09-23T07:34:11.566Z,12.20
2022-09-23T07:36:40.983Z,12.30
2022-09-23T07:39:11.247Z,12.30
2022-09-23T07:41:39.017Z,12.40
2022-09-23T07:44:06.473Z,12.40
2022-09-23T07:46:36.086Z,12.40
2022-09-23T07:49:04.600Z,12.50
2022-09-23T07:51:36.643Z,12.60
2022-09-23T07:54:07.961Z,12.60
2022-09-23T07:56:38.203Z,12.60
2022-09-23T07:59:11.074Z,12.70
2022-09-23T08:01:44.157Z,12.70
2022-09-23T08:04:13.124Z,12.80
2022-09-23T08:06:44.051Z,12.80
2022-09-23T08:09:12.067Z,12.90
2022-09-23T08:11:42.377Z,13.00
2022-09-23T08:14:15.582Z,13.00
2022-09-23T08:16:44.797Z,13.10
2022-09-23T08:19:15.386Z,13.10
2022-09-23T08:21:43.267Z,13.20
2022-09-23T08:24:17.810Z,13.30
2022-09-23T08:26:46.307Z,13.40
2022-09-23T08:29:15.839Z,13.40
2022-09-23T08:31:43.188Z,13.50
2022-09-23T08:34:11.179Z,13.60
2022-09-23T08:36:38.536Z,13.60
2022-09-23T08:39:06.783Z,13.60
2022-09-23T08:41:39.669Z,13.70
2022-09-23T08:44:21.723Z,13.80
2022-09-23T08:47:12.014Z,13.80
2022-09-23T08:49:50.291Z,13.90
2022-09-23T08:52:28.363Z,14.00
2022-09-23T08:54:57.977Z,14.10
2022-09-23T08:57:57.501Z,14.20
2022-09-23T09:01:14.451Z,14.30
2022-09-23T09:03:55.241Z,14.40
2022-09-23T09:06:51.806Z,14.50
2022-09-23T09:09:29.118Z,14.60
2022-09-23T09:12:16.234Z,14.80
2022-09-23T09:15:01.598Z,14.90
2022-09-23T09:17:52.536Z,15.00
2022-09-23T09:20:19.907Z,15.10
2022-09-23T09:22:57.953Z,15.10
2022-09-23T09:25:46.464Z,15.20
2022-09-23T09:28:38.164Z,15.30
2022-09-23T09:31:27.096Z,15.40
2022-09-23T09:34:17.203Z,15.50
2022-09-23T09:36:56.333Z,15.50
2022-09-23T09:39:29.877Z,15.70
2022-09-23T09:41:59.627Z,15.70
2022-09-23T09:44:58.685Z,15.80
2022-09-23T09:47:40.535Z,16.00
2022-09-23T09:50:21.756Z,16.10
2022-09-23T09:52:56.168Z,16.30
2022-09-23T09:55:26.987Z,16.60
2022-09-23T09:57:57.439Z,16.80
2022-09-23T10:00:27.805Z,17.10
2022-09-23T10:03:03.382Z,17.40
2022-09-23T10:05:46.893Z,17.70
2022-09-23T10:08:26.757Z,18.00
2022-09-23T10:11:03.160Z,18.20
2022-09-23T10:13:31.576Z,18.50
2022-09-23T10:16:02.964Z,18.70
2022-09-23T10:18:36.130Z,18.90
2022-09-23T10:21:08.453Z,19.10
2022-09-23T10:23:44.759Z,19.30
2022-09-23T10:26:14.021Z,19.60
2022-09-23T10:28:41.343Z,19.70
2022-09-23T10:31:25.517Z,20.00
2022-09-23T10:34:14.519Z,20.10
2022-09-23T10:36:44.536Z,20.30
2022-09-23T10:39:30.643Z,20.50
2022-09-23T10:42:33.836Z,20.60
2022-09-23T10:45:24.924Z,20.70
2022-09-23T10:48:18.722Z,20.90
2022-09-23T10:50:53.251Z,21.00
2022-09-23T10:53:44.779Z,21.20
2022-09-23T10:56:34.363Z,21.30
2022-09-23T10:59:30.332Z,21.40
2022-09-23T11:02:23.351Z,21.50
2022-09-23T11:05:13.938Z,21.60
2022-09-23T11:08:06.754Z,21.60
2022-09-23T11:10:52.311Z,21.70
2022-09-23T11:13:34.471Z,21.70
2022-09-23T11:16:25.893Z,21.70
2022-09-23T11:19:22.183Z,21.60
2022-09-23T11:22:18.560Z,21.50
2022-09-23T11:24:52.370Z,21.50
2022-09-23T11:28:05.009Z,21.40
2022-09-23T11:30:38.180Z,21.30
2022-09-23T11:33:21.050Z,21.20
2022-09-23T11:35:52.578Z,21.20
2022-09-23T11:38:33.824Z,21.20
2022-09-23T11:41:24.847Z,21.20
2022-09-23T11:44:03.881Z,21.30
2022-09-23T11:46:40.368Z,21.30
2022-09-23T11:49:12.937Z,21.40
2022-09-23T11:51:43.389Z,21.50
2022-09-23T11:54:22.272Z,21.60
2022-09-23T11:56:57.392Z,21.70
2022-09-23T11:59:40.471Z,21.90
2022-09-23T12:02:30.997Z,22.10
2022-09-23T12:05:12.922Z,22.20
2022-09-23T12:08:14.633Z,22.40
2022-09-23T12:11:00.459Z,22.70
2022-09-23T12:14:08.760Z,22.90
2022-09-23T12:17:33.348Z,23.30
2022-09-23T12:20:42.207Z,23.60
2022-09-23T12:23:24.491Z,24.00
2022-09-23T12:25:57.132Z,24.50
2022-09-23T12:28:28.280Z,25.00
2022-09-23T12:30:57.199Z,25.50
2022-09-23T12:33:30.368Z,25.90
2022-09-23T12:36:30.456Z,26.50
2022-09-23T12:39:17.232Z,27.30
2022-09-23T12:41:49.251Z,27.90
2022-09-23T12:44:36.870Z,28.50
2022-09-23T12:47:25.307Z,29.20
2022-09-23T12:49:53.853Z,29.70
2022-09-23T12:52:26.159Z,30.20
2022-09-23T12:54:58.020Z,30.80
2022-09-23T12:57:34.530Z,31.20
2022-09-23T13:00:11.325Z,31.60
2022-09-23T13:03:12.418Z,31.90
2022-09-23T13:06:07.128Z,32.20
2022-09-23T13:08:39.010Z,32.50
2022-09-23T13:11:22.840Z,32.80
2022-09-23T13:13:50.849Z,33.00
2022-09-23T13:16:37.042Z,32.90
2022-09-23T13:19:09.758Z,32.50
2022-09-23T13:21:42.889Z,32.00
2022-09-23T13:24:13.327Z,31.40
2022-09-23T13:26:52.035Z,30.80
2022-09-23T13:29:51.848Z,30.10
2022-09-23T13:32:21.797Z,29.40
2022-09-23T13:34:58.882Z,28.70
2022-09-23T13:37:38.741Z,28.00
2022-09-23T13:40:24.959Z,27.50
2022-09-23T13:43:13.899Z,26.90
2022-09-23T13:45:43.619Z,26.40
2022-09-23T13:48:15.532Z,25.90
2022-09-23T13:50:49.679Z,25.50
2022-09-23T13:53:37.272Z,25.10
2022-09-23T13:56:13.192Z,24.80
2022-09-23T13:58:45.838Z,24.50
2022-09-23T14:01:34.970Z,24.20
2022-09-23T14:04:02.721Z,24.00
2022-09-23T14:06:31.278Z,23.70
2022-09-23T14:09:02.552Z,23.60
2022-09-23T14:11:33.201Z,23.40
2022-09-23T14:14:07.661Z,23.20
2022-09-23T14:16:40.649Z,23.10
2022-09-23T14:19:17.595Z,22.90
2022-09-23T14:21:49.245Z,22.80
2022-09-23T14:24:24.389Z,22.70
2022-09-23T14:27:06.762Z,22.60
2022-09-23T14:29:37.948Z,22.40
2022-09-23T14:32:28.092Z,22.30
2022-09-23T14:35:01.308Z,22.30
2022-09-23T14:37:55.382Z,22.20
2022-09-23T14:40:22.792Z,22.10
2022-09-23T14:43:02.227Z,22.00
2022-09-23T14:45:40.759Z,22.00
2022-09-23T14:48:19.071Z,21.90
2022-09-23T14:50:52.318Z,21.80
2022-09-23T14:53:22.784Z,21.80
2022-09-23T14:56:07.525Z,21.80
2022-09-23T14:58:59.408Z,21.70
2022-09-23T15:01:34.801Z,21.70
2022-09-23T15:04:16.120Z,21.60
2022-09-23T15:07:14.899Z,21.60
2022-09-23T15:09:43.934Z,21.50
2022-09-23T15:12:13.468Z,21.50
2022-09-23T15:14:46.752Z,21.40
2022-09-23T15:17:22.991Z,21.40
2022-09-23T15:19:56.670Z,21.30
2022-09-23T15:22:27.380Z,21.30
2022-09-23T15:25:12.942Z,21.30
2022-09-23T15:27:40.888Z,21.20
2022-09-23T15:30:20.785Z,21.20
2022-09-23T15:32:52.613Z,21.20
2022-09-23T15:35:26.878Z,21.10
2022-09-23T15:37:58.440Z,21.10
2022-09-23T15:40:28.238Z,21.00
2022-09-23T15:43:00.699Z,21.00
2022-09-23T15:45:30.141Z,21.00
2022-09-23T15:48:04.921Z,20.90
2022-09-23T15:50:36.908Z,20.90
2022-09-23T15:53:06.057Z,20.80
2022-09-23T15:55:33.861Z,20.80
2022-09-23T15:58:01.219Z,20.70
2022-09-23T16:00:28.825Z,20.70
2022-09-23T16:02:56.202Z,20.60
2022-09-23T16:05:33.700Z,20.60
2022-09-23T16:08:07.866Z,20.50
2022-09-23T16:10:37.417Z,20.50
2022-09-23T16:13:08.174Z,20.40
2022-09-23T16:15:36.096Z,20.40
2022-09-23T16:18:07.099Z,20.30
2022-09-23T16:20:37.032Z,20.20
2022-09-23T16:23:20.456Z,20.20
2022-09-23T16:25:50.318Z,20.10
2022-09-23T16:28:17.620Z,20.00
2022-09-23T16:30:45.297Z,20.00
2022-09-23T16:33:12.603Z,19.90
2022-09-23T16:35:40.242Z,19.80
2022-09-23T16:38:08.776Z,19.80
2022-09-23T16:40:36.117Z,19.70
2022-09-23T16:43:05.851Z,19.60
2022-09-23T16:45:33.411Z,19.60
2022-09-23T16:48:03.181Z,19.50
2022-09-23T16:50:34.574Z,19.50
2022-09-23T16:53:04.341Z,19.40
2022-09-23T16:55:33.970Z,19.30
2022-09-23T16:58:01.311Z,19.30
2022-09-23T17:00:47.309Z,19.20
2022-09-23T17:03:33.192Z,19.20
2022-09-23T17:06:08.089Z,19.10
2022-09-23T17:08:40.708Z,19.00
2022-09-23T17:11:11.828Z,18.90
2022-09-23T17:13:41.432Z,18.90
2022-09-23T17:16:21.799Z,18.80
2022-09-23T17:18:51.927Z,18.80
2022-09-23T17:21:26.453Z,18.70
2022-09-23T17:23:57.736Z,18.60
2022-09-23T17:26:30.526Z,18.60
2022-09-23T17:29:01.621Z,18.50
2022-09-23T17:31:31.410Z,18.40
2022-09-23T17:33:58.861Z,18.40
2022-09-23T17:36:27.393Z,18.30
2022-09-23T17:38:59.463Z,18.30
2022-09-23T17:41:27.590Z,18.20
2022-09-23T17:43:57.169Z,18.10
2022-09-23T17:46:28.929Z,18.10
2022-09-23T17:48:57.054Z,18.00
2022-09-23T17:51:27.755Z,18.00
2022-09-23T17:53:55.144Z,17.90
2022-09-23T17:56:32.776Z,17.90
2022-09-23T17:59:04.232Z,17.80
2022-09-23T18:01:35.623Z,17.80
2022-09-23T18:04:05.751Z,17.80
2022-09-23T18:06:35.892Z,17.70
2022-09-23T18:09:05.357Z,17.70
2022-09-23T18:11:36.042Z,17.60
2022-09-23T18:14:11.817Z,17.60
2022-09-23T18:16:46.253Z,17.50
2022-09-23T18:19:18.614Z,17.50
2022-09-23T18:21:54.660Z,17.40
2022-09-23T18:24:38.174Z,17.40
2022-09-23T18:27:06.584Z,17.30
2022-09-23T18:29:35.132Z,17.30
2022-09-23T18:32:03.213Z,17.30
2022-09-23T18:34:30.738Z,17.20
2022-09-23T18:36:58.156Z,17.20
2022-09-23T18:39:25.959Z,17.10
2022-09-23T18:41:53.635Z,17.10
2022-09-23T18:44:21.340Z,17.00
2022-09-23T18:46:48.681Z,17.00
2022-09-23T18:49:36.835Z,17.00
2022-09-23T18:52:04.140Z,16.90
2022-09-23T18:54:33.698Z,16.90
2022-09-23T18:57:05.767Z,16.90
2022-09-23T18:59:33.447Z,16.80
2022-09-23T19:02:01.136Z,16.80
2022-09-23T19:04:29.107Z,16.80
2022-09-23T19:06:56.672Z,16.70
2022-09-23T19:09:24.762Z,16.70
2022-09-23T19:11:54.346Z,16.70
2022-09-23T19:14:23.952Z,16.60
2022-09-23T19:16:51.360Z,16.60
2022-09-23T19:19:18.747Z,16.60
2022-09-23T19:21:46.381Z,16.60
2022-09-23T19:24:19.873Z,16.50
2022-09-23T19:26:48.501Z,16.50
2022-09-23T19:29:22.152Z,16.40
2022-09-23T19:31:50.169Z,16.40
2022-09-23T19:34:20.126Z,16.40
2022-09-23T19:36:50.200Z,16.30
2022-09-23T19:39:22.252Z,16.30
2022-09-23T19:41:50.830Z,16.30
2022-09-23T19:44:20.028Z,16.20
2022-09-23T19:46:53.637Z,16.20
2022-09-23T19:49:24.574Z,16.20
2022-09-23T19:51:56.971Z,16.10
2022-09-23T19:54:29.417Z,16.10
2022-09-23T19:56:56.832Z,16.10
2022-09-23T19:59:26.463Z,16.00
2022-09-23T20:01:54.192Z,16.00
2022-09-23T20:04:24.227Z,16.00
2022-09-23T20:06:51.650Z,16.00
2022-09-23T20:09:21.686Z,15.90
2022-09-23T20:11:49.755Z,15.90
2022-09-23T20:14:19.335Z,15.90
2022-09-23T20:16:47.062Z,15.80
2022-09-23T20:19:14.469Z,15.80
2022-09-23T20:21:41.820Z,15.80
2022-09-23T20:24:13.096Z,15.80
2022-09-23T20:26:58.902Z,15.70
2022-09-23T20:29:28.839Z,15.70
2022-09-23T20:31:59.066Z,15.70
2022-09-23T20:34:29.724Z,15.70
2022-09-23T20:36:58.668Z,15.60
2022-09-23T20:39:26.024Z,15.60
2022-09-23T20:41:54.332Z,15.60
2022-09-23T20:44:21.745Z,15.60
2022-09-23T20:46:51.949Z,15.50
2022-09-23T20:49:20.921Z,15.50
2022-09-23T20:51:49.200Z,15.50
2022-09-23T20:54:20.751Z,15.40
2022-09-23T20:56:48.375Z,15.40
2022-09-23T20:59:18.368Z,15.40
2022-09-23T21:01:47.590Z,15.40
2022-09-23T21:04:17.908Z,15.30
2022-09-23T21:06:47.721Z,15.30
2022-09-23T21:09:15.162Z,15.30
2022-09-23T21:11:42.671Z,15.30
2022-09-23T21:14:10.258Z,15.20
2022-09-23T21:16:37.767Z,15.20
2022-09-23T21:19:10.301Z,15.20
2022-09-23T21:21:44.652Z,15.20
2022-09-23T21:24:43.791Z,15.10
2022-09-23T21:26:59.960Z,15.10
2022-09-23T21:29:27.807Z,15.10
2022-09-23T21:31:55.627Z,15.10
2022-09-23T21:34:28.141Z,15.00
2022-09-23T21:37:00.460Z,15.00
2022-09-23T21:39:32.098Z,15.00
2022-09-23T21:42:02.054Z,15.00
2022-09-23T21:44:31.824Z,15.00
2022-09-23T21:47:03.906Z,15.00
2022-09-23T21:49:33.650Z,14.90
2022-09-23T21:52:01.203Z,14.90
2022-09-23T21:54:29.631Z,14.90
2022-09-23T21:56:57.075Z,14.90
2022-09-23T21:59:27.260Z,14.90
2022-09-23T22:01:54.597Z,14.90
2022-09-23T22:04:24.596Z,14.90
2022-09-23T22:06:57.063Z,14.90
2022-09-23T22:09:24.684Z,14.90
2022-09-23T22:12:07.808Z,14.90
2022-09-23T22:14:38.898Z,14.90
2022-09-23T22:17:08.596Z,14.90
2022-09-23T22:19:44.348Z,14.90
2022-09-23T22:22:16.218Z,14.90
2022-09-23T22:24:49.070Z,14.90
2022-09-23T22:27:18.914Z,14.90
2022-09-23T22:30:07.360Z,14.90
2022-09-23T22:32:41.090Z,14.80
2022-09-23T22:35:14.214Z,14.80
2022-09-23T22:37:44.256Z,14.80
2022-09-23T22:40:14.696Z,14.80
2022-09-23T22:42:42.895Z,14.80
2022-09-23T22:45:14.956Z,14.80
2022-09-23T22:47:48.252Z,14.80
2022-09-23T22:50:15.777Z,14.80
2022-09-23T22:52:43.592Z,14.70
2022-09-23T22:55:13.466Z,14.70
2022-09-23T22:57:40.916Z,14.70
2022-09-23T23:00:12.360Z,14.70
2022-09-23T23:02:42.722Z,14.70
2022-09-23T23:05:16.541Z,14.70
2022-09-23T23:07:46.333Z,14.60
2022-09-23T23:10:16.921Z,14.60
2022-09-23T23:12:46.971Z,14.60
2022-09-23T23:15:14.314Z,14.50
2022-09-23T23:17:43.449Z,14.60
2022-09-23T23:20:13.089Z,14.50
2022-09-23T23:22:40.442Z,14.50
2022-09-23T23:25:08.119Z,14.50
2022-09-23T23:27:40.167Z,14.40
2022-09-23T23:30:11.373Z,14.40
2022-09-23T23:32:38.773Z,14.40
2022-09-23T23:35:06.476Z,14.40
2022-09-23T23:37:38.723Z,14.40
2022-09-23T23:40:06.818Z,14.30
2022-09-23T23:42:34.685Z,14.30
2022-09-23T23:45:04.705Z,14.30
2022-09-23T23:47:34.580Z,14.30
2022-09-23T23:50:04.308Z,14.30
2022-09-23T23:52:36.515Z,14.30
2022-09-23T23:55:04.055Z,14.30
2022-09-23T23:57:31.306Z,14.30
